LDRI 200030Z 12004KT CAVOK 14/11 Q1026 LDRI 200000Z 12004KT CAVOK 14/10 Q1026 LDRI 192330Z 14002KT CAVOK 15/10 Q1026 LDRI 192300Z 13002KT CAVOK 15/08 Q1027 LDRI 192230Z 26002KT CAVOK 16/08 Q1026 LDRI 192200Z 33001KT CAVOK 16/08 Q1026 LDRI 192130Z 32002KT CAVOK 17/09 Q1026 LDRI 192100Z 31003KT CAVOK 17/10 Q1026 LDRI 192030Z 33002KT CAVOK 17/13 Q1026 LDRI 192000Z 33004KT CAVOK 18/13 Q1026 LDRI 191930Z 32004KT CAVOK 18/13 Q1026 LDRI 191900Z 32005KT CAVOK 18/13 Q1026 LDRI 191830Z 34004KT CAVOK 19/13 Q1026 LDRI 191800Z 33005KT CAVOK 21/11 Q1026 LDRI 191730Z 32005KT CAVOK 22/10 Q1026 LDRI 191700Z 33004KT 300V010 CAVOK 22/10 Q1026 LDRI 191630Z 32005KT 270V350 CAVOK 23/07 Q1026 LDRI 191600Z 31004KT 260V020 CAVOK 24/06 Q1026 LDRI 191530Z 32003KT 230V030 CAVOK 25/05 Q1026 LDRI 191500Z VRB03KT CAVOK 24/04 Q1026 LDRI 191430Z 32006KT 280V010 CAVOK 24/04 Q1026 LDRI 191400Z 31005KT 270V360 CAVOK 24/04 Q1026 LDRI 191330Z 29003KT 230V340 CAVOK 25/03 Q1027 LDRI 191300Z 27007KT 230V300 CAVOK 23/08 Q1027 LDRI 191230Z 26005KT 210V310 CAVOK 26/M03 Q1027 LDRI 191200Z 26004KT 200V330 CAVOK 26/M01 Q1027 LDRI 191130Z 27006KT 230V320 CAVOK 24/M00 Q1027 LDRI 191100Z 26005KT 200V310 CAVOK 25/M00 Q1027 LDRI 191030Z 26004KT 230V310 CAVOK 24/M01 Q1027 LDRI 191000Z 26005KT 200V300 CAVOK 23/M00 Q1027 LDRI 190930Z 27005KT 230V310 CAVOK 23/M04 Q1027 LDRI 190900Z 26006KT 210V310 CAVOK 22/02 Q1027 LDRI 190830Z 26005KT 230V300 CAVOK 21/M01 Q1027 LDRI 190800Z 26006KT CAVOK 21/04 Q1027 LDRI 190730Z 25003KT 190V330 CAVOK 21/01 Q1027 LDRI 190700Z 27003KT 230V360 CAVOK 20/02 Q1027 LDRI 190630Z 32003KT 250V360 CAVOK 20/02 Q1027 LDRI 190600Z 07005KT CAVOK 20/M01 Q1027 LDRI 190530Z 03003KT 320V090 CAVOK 19/02 Q1027 LDRI 190500Z 06007KT CAVOK 17/00 Q1027 LDRI 190430Z 05008KT CAVOK 17/00 Q1026 LDRI 190400Z 06008KT CAVOK 16/M00 Q1026 LDRI 190330Z 06006KT CAVOK 16/01 Q1026 LDRI 190300Z 06002KT CAVOK 16/01 Q1026 LDRI 190230Z 05006KT CAVOK 17/01 Q1026 LDRI 190200Z 02005KT CAVOK 17/02 Q1026 LDRI 190130Z 33003KT 270V070 CAVOK 15/04 Q1026 LDRI 190100Z 36004KT CAVOK 16/05 Q1026 LDRI 190030Z 12004KT CAVOK 16/05 Q1026 LDRI 190000Z VRB01KT CAVOK 16/05 Q1026 LDRI 182330Z 17005KT 080V240 CAVOK 18/05 Q1026 LDRI 182300Z 09010KT 060V140 CAVOK 19/04 Q1025 LDRI 182230Z 12006KT CAVOK 17/05 Q1026 LDRI 182200Z VRB02KT CAVOK 17/04 Q1026 LDRI 182130Z VRB01KT CAVOK 16/04 Q1026 LDRI 182100Z 09003KT 040V150 CAVOK 18/04 Q1026 LDRI 182030Z VRB01KT CAVOK 19/04 Q1025 LDRI 182000Z VRB02KT CAVOK 17/05 Q1025 LDRI 181930Z 07003KT 030V120 CAVOK 19/04 Q1025 LDRI 181900Z 08006KT CAVOK 21/03 Q1025 LDRI 181830Z 08006KT CAVOK 21/03 Q1024 LDRI 181800Z 07008G20KT 030V140 CAVOK 22/03 Q1024 LDRI 181730Z 08012KT 040V130 CAVOK 23/03 Q1024 LDRI 181700Z 04012KT CAVOK 23/03 Q1023 LDRI 181630Z 06011KT 010V110 CAVOK 24/03 Q1023 LDRI 181600Z 06010KT 360V100 CAVOK 24/05 Q1023 LDRI 181530Z 03010KT 330V060 CAVOK 24/05 Q1023 LDRI 181500Z VRB06KT CAVOK 25/05 Q1023 LDRI 181430Z VRB08KT CAVOK 25/05 Q1023 LDRI 181400Z 08009KT 350V150 CAVOK 25/05 Q1023 LDRI 181330Z 02010KT 300V050 CAVOK 25/05 Q1023 LDRI 181300Z 03011KT 330V080 CAVOK 25/06 Q1023

METAR Messwerte "RIJEKA/OMISALJ" LDRI

Zurück zur Übersicht

Ortsname
Ländercode / m ü. NN
Zeit Temperatur Taupunkt Rel.
Luftfeuchte
Luftdruck:
Altimeter
NN
Station
Wind in Beaufort
(Knoten)
Sichtweite
(Meter)
Wolken
(Meter über Grund)
Wettererscheinung
RIJEKA/OMISALJ
HR 80
Fr 20.05. 02:30141182 %1026
1026
1016
OSO 2 (4)>= 10000Nicht signifikant 
RIJEKA/OMISALJ
HR 80
Fr 20.05. 02:00141077 %1026
1026
1016
OSO 2 (4)>= 10000Nicht signifikant 
RIJEKA/OMISALJ
HR 80
Fr 20.05. 01:30151072 %1026
1026
1016
SO 1 (2)>= 10000Nicht signifikant 
RIJEKA/OMISALJ
HR 80
Fr 20.05. 01:0015863 %1027
1027
1017
SO 1 (2)>= 10000Nicht signifikant 
RIJEKA/OMISALJ
HR 80
Fr 20.05. 00:3016859 %1026
1026
1016
W 1 (2)>= 10000Nicht signifikant 
RIJEKA/OMISALJ
HR 80
Fr 20.05. 00:0016859 %1026
1026
1016
NNW 1 (1)>= 10000Nicht signifikant 
RIJEKA/OMISALJ
HR 80
Do 19.05. 23:3017959 %1026
1026
1016
NW 1 (2)>= 10000Nicht signifikant 
RIJEKA/OMISALJ
HR 80
Do 19.05. 23:00171063 %1026
1026
1016
NW 2 (3)>= 10000Nicht signifikant 
RIJEKA/OMISALJ
HR 80
Do 19.05. 22:30171377 %1026
1026
1016
NNW 1 (2)>= 10000Nicht signifikant 
RIJEKA/OMISALJ
HR 80
Do 19.05. 22:00181373 %1026
1026
1016
NNW 2 (4)>= 10000Nicht signifikant 
RIJEKA/OMISALJ
HR 80
Do 19.05. 21:30181373 %1026
1026
1016
NW 2 (4)>= 10000Nicht signifikant 
RIJEKA/OMISALJ
HR 80
Do 19.05. 21:00181373 %1026
1026
1016
NW 2 (5)>= 10000Nicht signifikant 
RIJEKA/OMISALJ
HR 80
Do 19.05. 20:30191368 %1026
1026
1016
NNW 2 (4)>= 10000Nicht signifikant 
RIJEKA/OMISALJ
HR 80
Do 19.05. 20:00211153 %1026
1026
1016
NNW 2 (5)>= 10000Nicht signifikant 
RIJEKA/OMISALJ
HR 80
Do 19.05. 19:30221046 %1026
1026
1016
NW 2 (5)>= 10000Nicht signifikant 
RIJEKA/OMISALJ
HR 80
Do 19.05. 19:00221046 %1026
1026
1016
NNW 2 (4)
WNW - N
>= 10000Nicht signifikant 
RIJEKA/OMISALJ
HR 80
Do 19.05. 18:3023736 %1026
1026
1016
NW 2 (5)
W - N
>= 10000Nicht signifikant 
RIJEKA/OMISALJ
HR 80
Do 19.05. 18:0024631 %1026
1026
1016
NW 2 (4)
W - NNO
>= 10000Nicht signifikant 
RIJEKA/OMISALJ
HR 80
Do 19.05. 17:3025528 %1026
1026
1016
NW 2 (3)
SW - NNO
>= 10000Nicht signifikant 
RIJEKA/OMISALJ
HR 80
Do 19.05. 17:0024427 %1026
1026
1016
Uml 2 (3)>= 10000Nicht signifikant 
RIJEKA/OMISALJ
HR 80
Do 19.05. 16:3024427 %1026
1026
1016
NW 2 (6)
W - N
>= 10000Nicht signifikant 
RIJEKA/OMISALJ
HR 80
Do 19.05. 16:0024427 %1026
1026
1016
NW 2 (5)
W - N
>= 10000Nicht signifikant 
RIJEKA/OMISALJ
HR 80
Do 19.05. 15:3025324 %1027
1027
1017
WNW 2 (3)
SW - NNW
>= 10000Nicht signifikant 
RIJEKA/OMISALJ
HR 80
Do 19.05. 15:0023838 %1027
1027
1017
W 3 (7)
SW - WNW
>= 10000Nicht signifikant 
RIJEKA/OMISALJ
HR 80
Do 19.05. 14:3026-315 %1027
1027
1017
W 2 (5)
SSW - NW
>= 10000Nicht signifikant 
RIJEKA/OMISALJ
HR 80
Do 19.05. 14:0026-117 %1027
1027
1017
W 2 (4)
SSW - NNW
>= 10000Nicht signifikant 
RIJEKA/OMISALJ
HR 80
Do 19.05. 13:3024-020 %1027
1027
1017
W 2 (6)
SW - NW
>= 10000Nicht signifikant 
RIJEKA/OMISALJ
HR 80
Do 19.05. 13:0025-019 %1027
1027
1017
W 2 (5)
SSW - NW
>= 10000Nicht signifikant 
RIJEKA/OMISALJ
HR 80
Do 19.05. 12:3024-119 %1027
1027
1017
W 2 (4)
SW - NW
>= 10000Nicht signifikant 
RIJEKA/OMISALJ
HR 80
Do 19.05. 12:0023-022 %1027
1027
1017
W 2 (5)
SSW - WNW
>= 10000Nicht signifikant 
RIJEKA/OMISALJ
HR 80
Do 19.05. 11:3023-416 %1027
1027
1017
W 2 (5)
SW - NW
>= 10000Nicht signifikant 
RIJEKA/OMISALJ
HR 80
Do 19.05. 11:0022227 %1027
1027
1017
W 2 (6)
SSW - NW
>= 10000Nicht signifikant 
RIJEKA/OMISALJ
HR 80
Do 19.05. 10:3021-123 %1027
1027
1017
W 2 (5)
SW - WNW
>= 10000Nicht signifikant 
RIJEKA/OMISALJ
HR 80
Do 19.05. 10:0021433 %1027
1027
1017
W 2 (6)>= 10000Nicht signifikant 
RIJEKA/OMISALJ
HR 80
Do 19.05. 09:3021126 %1027
1027
1017
WSW 2 (3)
S - NNW
>= 10000Nicht signifikant 
RIJEKA/OMISALJ
HR 80
Do 19.05. 09:0020230 %1027
1027
1017
W 2 (3)
SW - N
>= 10000Nicht signifikant 
RIJEKA/OMISALJ
HR 80
Do 19.05. 08:3020230 %1027
1027
1017
NW 2 (3)
WSW - N
>= 10000Nicht signifikant 
RIJEKA/OMISALJ
HR 80
Do 19.05. 08:0020-124 %1027
1027
1017
ONO 2 (5)>= 10000Nicht signifikant 
RIJEKA/OMISALJ
HR 80
Do 19.05. 07:3019232 %1027
1027
1017
NNO 2 (3)
NW - O
>= 10000Nicht signifikant 
RIJEKA/OMISALJ
HR 80
Do 19.05. 07:0017032 %1027
1027
1017
ONO 3 (7)>= 10000Nicht signifikant 
RIJEKA/OMISALJ
HR 80
Do 19.05. 06:3017032 %1026
1026
1016
NO 3 (8)>= 10000Nicht signifikant 
RIJEKA/OMISALJ
HR 80
Do 19.05. 06:0016-034 %1026
1026
1016
ONO 3 (8)>= 10000Nicht signifikant 
RIJEKA/OMISALJ
HR 80
Do 19.05. 05:3016136 %1026
1026
1016
ONO 2 (6)>= 10000Nicht signifikant 
RIJEKA/OMISALJ
HR 80
Do 19.05. 05:0016136 %1026
1026
1016
ONO 1 (2)>= 10000Nicht signifikant 
RIJEKA/OMISALJ
HR 80
Do 19.05. 04:3017134 %1026
1026
1016
NO 2 (6)>= 10000Nicht signifikant 
RIJEKA/OMISALJ
HR 80
Do 19.05. 04:0017236 %1026
1026
1016
NNO 2 (5)>= 10000Nicht signifikant 
RIJEKA/OMISALJ
HR 80
Do 19.05. 03:3015448 %1026
1026
1016
NNW 2 (3)
W - ONO
>= 10000Nicht signifikant 
RIJEKA/OMISALJ
HR 80
Do 19.05. 03:0016548 %1026
1026
1016
N 2 (4)>= 10000Nicht signifikant 
RIJEKA/OMISALJ
HR 80
Do 19.05. 02:3016548 %1026
1026
1016
OSO 2 (4)>= 10000Nicht signifikant 
RIJEKA/OMISALJ
HR 80
Do 19.05. 02:0016548 %1026
1026
1016
Uml 1 (1)>= 10000Nicht signifikant 
RIJEKA/OMISALJ
HR 80
Do 19.05. 01:3018542 %1026
1026
1016
S 2 (5)
O - WSW
>= 10000Nicht signifikant 
RIJEKA/OMISALJ
HR 80
Do 19.05. 01:0019437 %1025
1025
1015
O 3 (10)
ONO - SO
>= 10000Nicht signifikant 
RIJEKA/OMISALJ
HR 80
Do 19.05. 00:3017545 %1026
1026
1016
OSO 2 (6)>= 10000Nicht signifikant 
RIJEKA/OMISALJ
HR 80
Do 19.05. 00:0017442 %1026
1026
1016
Uml 1 (2)>= 10000Nicht signifikant 
RIJEKA/OMISALJ
HR 80
Mi 18.05. 23:3016445 %1026
1026
1016
Uml 1 (1)>= 10000Nicht signifikant 
RIJEKA/OMISALJ
HR 80
Mi 18.05. 23:0018439 %1026
1026
1016
O 2 (3)
NO - SSO
>= 10000Nicht signifikant 
RIJEKA/OMISALJ
HR 80
Mi 18.05. 22:3019437 %1025
1025
1015
Uml 1 (1)>= 10000Nicht signifikant 
RIJEKA/OMISALJ
HR 80
Mi 18.05. 22:0017545 %1025
1025
1015
Uml 1 (2)>= 10000Nicht signifikant 
RIJEKA/OMISALJ
HR 80
Mi 18.05. 21:3019437 %1025
1025
1015
ONO 2 (3)
NNO - OSO
>= 10000Nicht signifikant 
RIJEKA/OMISALJ
HR 80
Mi 18.05. 21:0021330 %1025
1025
1015
O 2 (6)>= 10000Nicht signifikant 
RIJEKA/OMISALJ
HR 80
Mi 18.05. 20:3021330 %1024
1024
1014
O 2 (6)>= 10000Nicht signifikant 
RIJEKA/OMISALJ
HR 80
Mi 18.05. 20:0022329 %1024
1024
1014
ONO 3 (8) - 5 (20)
NNO - SO
>= 10000Nicht signifikant 
RIJEKA/OMISALJ
HR 80
Mi 18.05. 19:3023327 %1024
1024
1014
O 4 (12)
NO - SO
>= 10000Nicht signifikant 
RIJEKA/OMISALJ
HR 80
Mi 18.05. 19:0023327 %1023
1023
1013
NO 4 (12)>= 10000Nicht signifikant 
RIJEKA/OMISALJ
HR 80
Mi 18.05. 18:3024325 %1023
1023
1013
ONO 4 (11)
N - OSO
>= 10000Nicht signifikant 
RIJEKA/OMISALJ
HR 80
Mi 18.05. 18:0024529 %1023
1023
1013
ONO 3 (10)
N - O
>= 10000Nicht signifikant 
RIJEKA/OMISALJ
HR 80
Mi 18.05. 17:3024529 %1023
1023
1013
NNO 3 (10)
NNW - ONO
>= 10000Nicht signifikant 
RIJEKA/OMISALJ
HR 80
Mi 18.05. 17:0025528 %1023
1023
1013
Uml 2 (6)>= 10000Nicht signifikant 
RIJEKA/OMISALJ
HR 80
Mi 18.05. 16:3025528 %1023
1023
1013
Uml 3 (8)>= 10000Nicht signifikant 
RIJEKA/OMISALJ
HR 80
Mi 18.05. 16:0025528 %1023
1023
1013
O 3 (9)
N - SSO
>= 10000Nicht signifikant 
RIJEKA/OMISALJ
HR 80
Mi 18.05. 15:3025528 %1023
1023
1013
NNO 3 (10)
WNW - NO
>= 10000Nicht signifikant 
RIJEKA/OMISALJ
HR 80
Mi 18.05. 15:0025630 %1023
1023
1013
NNO 4 (11)
NNW - O
>= 10000Nicht signifikant 

Altimeter: Einstellung am Altimeter (Höhenmesser), die Höhe 0 muss auf diesen Luftdruckwert zeigen, damit das Gerät die Stationshöhe richtig anzeigt.

NN: Luftdruck reduziert auf "Normal Null", auf Meereshöhe, dieser von der Temperatur abhängige Wert wird bisweilen unkorrekt einfach als "Luftdruck" bezeichnet. Eigentlich nur eine fiktive Größe, die es erlaubt, Stationen auf unterschiedlichen Höhen miteinander zu vergleichen.

Station: Realer Luftdruck an der Station.